Norfolk, Virginia
Traffic Map
Current Weather Conditions
Norfolk, Virginia
Broken Clouds
Broken Clouds
26°
Feels Like: 27°
Wind Chill: 26° Ceiling: 1600
Heat Index: 27° Visibility: 10mi
Dew Point: 23° Wind: 7mph
Humidity: 84% Direction: 130° (SE)
Pressure: 30.09in Gusts: 0mph
Raw Report DataKORF 291908Z AUTO 13006KT 10SM BKN016 BKN039 26/23 A3009 RMK AO2 RAE1859 P0000 T02560228 TSNO
Traffic Incident Summary
Active as of:
Severity:
Category:
InformationThere was an issue retrieving the traffic information for this location. Please try a different location or try again shortly.
Advertisements
Track Severe Weather on mobile